Time;durP1;ratioP1;P1;durP2;ratioP2;P2;SDS_P1;SDS_P2;PMS_P1;PMS_P2;Temp;Humidity;BMP_temperature;BMP_pressure;BME280_temperature;BME280_humidity;BME280_pressure;Samples;Min_cycle;Max_cycle;Signal;HPM_P1;HPM_P2
2022/01/31 00:02:46;;;;;;;23.50;11.27;;;;;;;13.07;59.55;101030.28;4963772;28;20047;-81
2022/01/31 00:05:31;;;;;;;26.30;13.27;;;;;;;13.01;60.07;101030.75;4961342;28;20043;-82
2022/01/31 00:08:21;;;;;;;;;;;;;;;13.00;60.45;101027.25;4966267;28;20047;-81
2022/01/31 00:11:06;;;;;;;20.13;10.68;;;;;;;13.01;60.41;101023.38;4963939;28;19914;-81
2022/01/31 00:14:09;;;;;;;12.23;8.55;;;;;;;13.03;60.59;101014.88;4960359;28;20051;-81
2022/01/31 00:16:55;;;;;;;22.05;12.30;;;;;;;13.05;60.55;101015.38;4963821;28;20054;-82
2022/01/31 00:19:41;;;;;;;34.63;17.38;;;;;;;13.05;60.13;101007.19;4962156;28;20047;-81
2022/01/31 00:22:26;;;;;;;25.92;14.02;;;;;;;13.00;59.56;101007.34;4959259;28;20051;-82
2022/01/31 00:25:11;;;;;;;;;;;;;;;12.99;60.71;101009.28;4961716;28;20047;-81
2022/01/31 00:27:56;;;;;;;22.50;12.18;;;;;;;12.97;60.73;101007.97;4962728;28;19914;-82
2022/01/31 00:30:41;;;;;;;;;;;;;;;12.99;61.05;100997.53;4947087;28;20039;-81
2022/01/31 00:33:26;;;;;;;22.73;10.65;;;;;;;12.96;61.15;100987.25;4964738;28;19914;-83
2022/01/31 00:36:10;;;;;;;36.20;19.67;;;;;;;12.92;60.50;100989.03;4961688;28;20042;-82
2022/01/31 00:38:55;;;;;;;25.55;13.50;;;;;;;12.89;59.93;100992.44;4959512;28;20039;-83
2022/01/31 00:41:40;;;;;;;29.48;16.38;;;;;;;12.89;60.24;100986.97;4963867;28;20047;-81
2022/01/31 00:44:37;;;;;;;34.67;18.95;;;;;;;12.80;57.88;100974.13;4958539;28;20035;-81
2022/01/31 00:47:28;;;;;;;21.90;12.02;;;;;;;12.80;60.75;100971.41;4960132;28;20039;-82
2022/01/31 00:50:15;;;;;;;23.02;13.35;;;;;;;12.81;60.71;100964.00;4963277;28;20043;-81
2022/01/31 00:53:00;;;;;;;23.85;12.15;;;;;;;12.77;61.12;100947.50;4958953;28;20039;-81
2022/01/31 00:55:44;;;;;;;16.00;9.65;;;;;;;12.77;61.19;100942.03;4957546;28;20051;-81
2022/01/31 00:58:29;;;;;;;20.88;13.50;;;;;;;12.72;59.85;100936.75;4962688;28;20062;-83
2022/01/31 01:01:15;;;;;;;21.35;12.10;;;;;;;12.73;60.81;100935.63;4942908;29;20492;-81
2022/01/31 01:04:00;;;;;;;14.77;8.88;;;;;;;12.71;61.57;100932.41;4940781;29;20056;-81
2022/01/31 01:06:45;;;;;;;17.88;10.00;;;;;;;12.75;61.52;100927.91;4957202;28;20058;-81
2022/01/31 01:09:30;;;;;;;;;;;;;;;12.77;61.60;100930.31;4959680;28;20407;-82
2022/01/31 01:12:16;;;;;;;17.73;10.20;;;;;;;12.88;61.28;100933.50;4959746;28;19914;-83
2022/01/31 01:15:01;;;;;;;19.42;10.70;;;;;;;12.91;61.62;100943.75;4959829;28;20043;-82
2022/01/31 01:17:47;;;;;;;;;;;;;;;12.98;61.21;100938.63;4961277;28;20035;-82
2022/01/31 01:20:33;;;;;;;19.65;11.25;;;;;;;12.88;61.44;100923.38;4958961;28;20411;-82
2022/01/31 01:23:19;;;;;;;18.50;11.40;;;;;;;12.89;61.62;100908.63;4963434;28;20043;-83
2022/01/31 01:26:04;;;;;;;22.00;11.98;;;;;;;12.83;61.34;100901.72;4957850;29;20043;-82
2022/01/31 01:28:49;;;;;;;;;;;;;;;12.82;61.30;100900.94;4959278;29;20051;-82
2022/01/31 01:31:34;;;;;;;19.83;11.32;;;;;;;12.75;61.90;100886.97;4962844;29;19915;-82
2022/01/31 01:34:21;;;;;;;14.63;8.60;;;;;;;12.68;62.03;100889.41;4960814;29;20043;-82
2022/01/31 01:37:06;;;;;;;19.33;10.85;;;;;;;12.66;62.45;100891.66;4959567;28;20050;-82
2022/01/31 01:39:52;;;;;;;19.80;11.55;;;;;;;12.65;62.18;100895.50;4957620;28;20051;-82
2022/01/31 01:42:36;;;;;;;17.50;9.30;;;;;;;12.62;62.51;100896.16;4962152;28;20039;-82
2022/01/31 01:45:22;;;;;;;22.60;13.40;;;;;;;12.61;62.34;100885.56;4959109;28;20124;-82
2022/01/31 01:48:08;;;;;;;30.38;17.30;;;;;;;12.38;56.51;100879.53;4964762;28;20043;-82
2022/01/31 01:50:55;;;;;;;29.85;17.77;;;;;;;12.49;60.49;100869.88;4962452;29;20043;-82
2022/01/31 01:53:40;;;;;;;19.23;11.43;;;;;;;12.48;62.28;100867.47;4958538;28;20035;-81
2022/01/31 01:56:25;;;;;;;17.42;10.23;;;;;;;12.48;60.88;100851.09;4957682;28;20819;-82
2022/01/31 01:59:10;;;;;;;;;;;;;;;12.46;62.58;100834.25;4960806;28;20069;-82
2022/01/31 02:02:07;;;;;;;20.35;11.02;;;;;;;12.47;62.72;100838.59;4961935;28;19915;-80
2022/01/31 02:04:52;;;;;;;18.45;10.70;;;;;;;12.51;62.77;100834.88;4976143;28;20706;-81
2022/01/31 02:07:52;;;;;;;19.00;10.65;;;;;;;12.49;63.10;100822.72;4988136;28;20046;-81
2022/01/31 02:10:41;;;;;;;37.75;16.65;;;;;;;12.44;62.98;100818.25;4969027;28;20043;-81
2022/01/31 02:13:49;;;;;;;26.38;12.98;;;;;;;12.38;62.28;100817.59;4945159;29;20040;-82
2022/01/31 02:16:53;;;;;;;28.10;15.27;;;;;;;12.42;62.29;100813.09;4942968;29;20047;-81
2022/01/31 02:19:45;;;;;;;31.73;17.73;;;;;;;12.35;61.61;100799.16;4946322;29;20517;-81
2022/01/31 02:22:41;;;;;;;46.17;26.25;;;;;;;12.17;53.73;100792.16;4958900;28;20043;-80
2022/01/31 02:26:04;;;;;;;42.05;23.65;;;;;;;12.12;52.15;100786.88;4959586;28;20043;-82
2022/01/31 02:29:03;;;;;;;18.90;11.85;;;;;;;12.17;60.25;100796.78;4965529;28;20043;-81
2022/01/31 02:31:50;;;;;;;37.33;20.00;;;;;;;12.19;60.67;100794.56;4964727;28;20039;-82
2022/01/31 02:34:36;;;;;;;22.45;10.73;;;;;;;12.19;62.36;100789.09;4972660;28;20043;-82
2022/01/31 02:37:21;;;;;;;45.95;24.77;;;;;;;12.14;59.57;100781.88;4943345;29;20051;-81
2022/01/31 02:40:07;;;;;;;39.13;22.88;;;;;;;12.02;55.71;100770.84;4940716;29;20048;-81
2022/01/31 02:42:52;;;;;;;49.45;23.65;;;;;;;11.94;51.65;100758.00;4944047;29;20048;-82
2022/01/31 02:45:39;;;;;;;43.67;23.90;;;;;;;11.87;53.12;100765.91;4947434;29;20043;-81
2022/01/31 02:48:26;;;;;;;52.83;28.13;;;;;;;11.73;51.48;100765.28;4960579;28;20051;-82
2022/01/31 02:51:12;;;;;;;53.20;27.90;;;;;;;11.67;45.27;100750.97;4963772;28;20047;-81
2022/01/31 02:53:57;;;;;;;50.67;27.42;;;;;;;11.62;43.84;100747.63;4961637;28;20043;-82
2022/01/31 02:56:42;;;;;;;34.33;18.42;;;;;;;11.46;47.17;100747.28;4960301;28;20047;-82
2022/01/31 02:59:27;;;;;;;28.98;17.10;;;;;;;11.47;53.62;100748.91;4964757;28;20047;-83
2022/01/31 03:02:13;;;;;;;33.45;17.85;;;;;;;11.48;55.81;100723.25;4962582;28;20043;-82
2022/01/31 03:04:58;;;;;;;46.45;25.27;;;;;;;11.28;50.35;100711.09;4959230;28;20070;-82
2022/01/31 03:07:43;;;;;;;55.90;27.98;;;;;;;11.24;47.19;100710.13;4964149;28;20047;-82
2022/01/31 03:10:28;;;;;;;;;;;;;;;11.18;50.50;100707.88;4963195;28;20050;-82
2022/01/31 03:13:13;;;;;;;42.80;23.73;;;;;;;11.17;49.99;100698.13;4960046;28;19914;-83
2022/01/31 03:16:06;;;;;;;40.05;23.27;;;;;;;10.99;49.48;100686.41;4958874;28;20035;-82
2022/01/31 03:19:09;;;;;;;40.05;22.40;;;;;;;10.96;51.83;100678.91;4960363;29;20043;-82
2022/01/31 03:21:55;;;;;;;25.50;12.98;;;;;;;11.28;59.35;100674.88;4958807;28;20051;-82
2022/01/31 03:24:42;;;;;;;19.00;10.60;;;;;;;11.45;61.46;100677.63;4961121;28;20411;-82
2022/01/31 03:27:27;;;;;;;18.27;10.40;;;;;;;11.55;62.67;100672.63;4960736;28;20051;-81
2022/01/31 03:30:16;;;;;;;14.13;8.07;;;;;;;11.70;62.99;100667.81;4959008;28;20043;-82
2022/01/31 03:33:00;;;;;;;16.17;10.18;;;;;;;11.77;63.52;100674.41;4961728;28;20050;-82
2022/01/31 03:35:45;;;;;;;14.40;7.07;;;;;;;11.92;64.05;100670.34;4960115;28;20051;-84
2022/01/31 03:38:30;;;;;;;13.80;8.30;;;;;;;11.96;63.98;100666.66;4946264;29;20059;-81
2022/01/31 03:41:18;;;;;;;17.27;8.35;;;;;;;11.97;64.07;100657.34;4944253;29;20051;-83
2022/01/31 03:44:03;;;;;;;33.15;14.40;;;;;;;11.88;63.35;100659.31;4942456;29;20070;-81
2022/01/31 03:46:48;;;;;;;;;;;;;;;11.71;57.11;100653.88;4944587;28;20039;-81
2022/01/31 03:49:33;;;;;;;45.13;22.30;;;;;;;11.68;58.89;100645.56;4963791;28;19914;-80
2022/01/31 03:52:26;;;;;;;49.00;22.52;;;;;;;11.62;56.33;100641.41;4961261;28;20496;-81
2022/01/31 03:55:13;;;;;;;37.53;19.77;;;;;;;11.51;53.18;100646.38;4957888;28;20047;-81
2022/01/31 03:57:59;;;;;;;52.10;25.52;;;;;;;11.36;54.14;100630.53;4962780;28;20050;-81
2022/01/31 04:01:14;;;;;;;43.85;22.38;;;;;;;11.29;56.19;100630.22;4957977;28;20043;-81
2022/01/31 04:03:59;;;;;;;45.60;20.35;;;;;;;11.15;56.25;100628.47;4958828;28;20860;-81
2022/01/31 04:06:43;;;;;;;;;;;;;;;11.15;55.95;100625.75;4960163;28;20488;-81
2022/01/31 04:09:28;;;;;;;24.35;13.57;;;;;;;11.30;58.88;100631.81;4959534;29;19914;-81
2022/01/31 04:12:13;;;;;;;31.88;15.10;;;;;;;11.33;60.75;100625.72;4959053;28;20043;-81
2022/01/31 04:14:58;;;;;;;40.42;21.40;;;;;;;11.15;59.75;100623.03;4958768;29;20035;-80
2022/01/31 04:17:43;;;;;;;38.35;20.30;;;;;;;11.04;59.64;100616.31;4958102;28;20047;-81
2022/01/31 04:20:28;;;;;;;27.17;14.90;;;;;;;11.09;60.64;100604.47;4959147;29;20043;-81
2022/01/31 04:23:16;;;;;;;35.25;18.33;;;;;;;11.04;58.34;100613.59;4959442;28;20043;-81
2022/01/31 04:26:10;;;;;;;40.95;21.77;;;;;;;10.90;58.17;100612.97;4958975;28;20051;-81
2022/01/31 04:29:04;;;;;;;44.65;23.83;;;;;;;10.93;59.75;100601.41;4957994;28;20035;-81
2022/01/31 04:31:51;;;;;;;48.30;25.23;;;;;;;10.96;60.82;100576.31;4959209;28;20047;-81
2022/01/31 04:34:36;;;;;;;31.25;18.42;;;;;;;10.96;62.04;100568.16;4957679;28;20040;-81
2022/01/31 04:37:21;;;;;;;26.52;14.88;;;;;;;11.00;62.21;100552.78;4959191;28;20043;-81
2022/01/31 04:40:11;;;;;;;45.22;20.52;;;;;;;10.99;60.91;100558.53;4958938;28;20047;-81
2022/01/31 04:42:55;;;;;;;46.65;24.50;;;;;;;10.94;60.36;100554.06;4958047;28;20047;-82
2022/01/31 04:45:47;;;;;;;53.95;29.35;;;;;;;10.80;58.23;100542.56;4958101;28;20503;-82
2022/01/31 04:48:33;;;;;;;45.53;24.75;;;;;;;10.67;59.31;100552.47;4959004;29;20042;-81
2022/01/31 04:51:17;;;;;;;26.67;15.00;;;;;;;10.92;61.74;100556.28;4959886;28;20054;-82
2022/01/31 04:54:02;;;;;;;31.55;16.50;;;;;;;10.99;62.09;100556.63;4959019;28;20047;-80
2022/01/31 04:56:47;;;;;;;38.88;20.27;;;;;;;11.04;62.66;100547.47;4959723;28;20043;-81
2022/01/31 04:59:33;;;;;;;24.10;13.27;;;;;;;11.09;63.98;100555.47;4958233;28;20047;-81
2022/01/31 05:02:18;;;;;;;32.47;16.02;;;;;;;11.17;64.36;100556.59;4956626;28;20412;-81
2022/01/31 05:05:04;;;;;;;38.83;21.40;;;;;;;11.01;57.98;100559.81;4958416;29;20051;-81
2022/01/31 05:07:51;;;;;;;44.53;25.60;;;;;;;10.88;55.12;100563.50;4956665;28;20728;-81
2022/01/31 05:10:43;;;;;;;37.55;21.60;;;;;;;10.93;57.94;100557.09;4957275;29;20039;-82
2022/01/31 05:13:29;;;;;;;26.45;14.77;;;;;;;11.05;61.54;100571.66;4959301;28;20504;-82
2022/01/31 05:16:14;;;;;;;20.95;12.10;;;;;;;11.04;62.29;100561.88;4959391;28;20043;-82
2022/01/31 05:18:59;;;;;;;;;;;;;;;11.13;64.37;100579.00;4959857;29;20058;-82
2022/01/31 05:21:43;;;;;;;17.27;9.57;;;;;;;11.12;65.39;100558.34;4943127;29;19915;-81
2022/01/31 05:24:28;;;;;;;18.27;10.18;;;;;;;11.16;65.53;100555.81;4944985;29;20047;-81
2022/01/31 05:27:14;;;;;;;23.17;11.15;;;;;;;11.14;65.02;100552.59;4959665;28;20046;-81
2022/01/31 05:29:58;;;;;;;25.27;14.15;;;;;;;11.17;65.05;100543.00;4967331;28;20028;-81
2022/01/31 05:32:44;;;;;;;36.53;21.00;;;;;;;11.11;62.80;100531.47;4974795;28;20027;-80
2022/01/31 05:35:29;;;;;;;;;;;;;;;11.10;62.78;100533.41;4978453;28;20055;-81
2022/01/31 05:38:13;;;;;;;24.60;11.45;;;;;;;11.06;63.30;100518.84;4978660;28;19906;-80
2022/01/31 05:41:04;;;;;;;30.90;15.57;;;;;;;11.07;64.43;100528.59;4963726;28;20054;-81
2022/01/31 05:43:49;;;;;;;31.35;18.80;;;;;;;11.03;61.56;100529.56;4944120;29;20424;-82
2022/01/31 05:46:34;;;;;;;37.63;20.75;;;;;;;10.92;59.86;100523.63;4943991;29;20042;-82
2022/01/31 05:49:19;;;;;;;30.80;17.27;;;;;;;10.88;59.42;100513.72;4947036;29;20055;-81
2022/01/31 05:52:06;;;;;;;20.40;10.60;;;;;;;11.00;63.23;100522.84;4949613;29;20044;-82
2022/01/31 05:54:51;;;;;;;20.27;12.65;;;;;;;11.03;64.33;100514.03;4943541;29;20047;-81
2022/01/31 05:57:36;;;;;;;18.98;12.60;;;;;;;11.01;63.33;100502.69;4943830;29;20044;-82
2022/01/31 06:00:21;;;;;;;21.45;11.07;;;;;;;11.03;64.55;100503.16;4951622;28;20038;-82
2022/01/31 06:03:06;;;;;;;12.95;7.50;;;;;;;11.02;64.91;100496.09;4964192;28;20047;-82
2022/01/31 06:05:51;;;;;;;20.27;10.48;;;;;;;10.97;64.08;100488.09;4956402;29;20046;-82
2022/01/31 06:08:36;;;;;;;;;;;;;;;11.01;66.12;100497.25;4967785;28;20508;-82
2022/01/31 06:11:21;;;;;;;16.02;9.07;;;;;;;11.01;66.31;100504.59;4967541;28;19915;-81
2022/01/31 06:14:10;;;;;;;;;;;;;;;11.01;66.19;100499.97;4944415;29;20059;-82
2022/01/31 06:16:55;;;;;;;17.02;9.00;;;;;;;11.01;66.98;100501.88;4946627;29;19918;-82
2022/01/31 06:19:40;;;;;;;15.48;8.95;;;;;;;10.98;66.76;100478.03;4946593;29;20424;-82
2022/01/31 06:22:24;;;;;;;21.58;11.48;;;;;;;10.99;65.93;100475.00;4963470;28;20058;-82
2022/01/31 06:25:11;;;;;;;15.90;8.85;;;;;;;10.99;64.83;100477.72;4958138;28;20491;-79
2022/01/31 06:27:58;;;;;;;38.15;19.70;;;;;;;10.95;61.37;100456.91;4961328;28;20058;-80
2022/01/31 06:30:43;;;;;;;33.20;15.77;;;;;;;10.87;59.29;100442.19;4961781;28;20039;-79
2022/01/31 06:33:28;;;;;;;40.95;22.23;;;;;;;10.83;57.52;100435.00;4959688;28;20047;-79
2022/01/31 06:36:13;;;;;;;;;;;;;;;10.74;57.35;100416.00;4963887;28;20043;-80
2022/01/31 06:38:58;;;;;;;39.72;21.02;;;;;;;10.68;55.36;100409.13;4957897;28;20375;-79
2022/01/31 06:41:43;;;;;;;;;;;;;;;10.72;59.88;100405.44;4955072;28;20043;-80
2022/01/31 06:44:28;;;;;;;31.30;15.07;;;;;;;10.78;61.61;100399.81;4960406;28;19915;-80
2022/01/31 06:47:12;;;;;;;;;;;;;;;10.72;60.06;100399.19;4963317;28;20043;-80
2022/01/31 06:49:59;;;;;;;53.05;22.58;;;;;;;10.60;50.14;100390.94;4962003;28;19918;-79
2022/01/31 06:52:44;;;;;;;57.22;24.67;;;;;;;10.35;48.33;100394.47;4952418;28;20043;-79
2022/01/31 06:55:30;;;;;;;;;;;;;;;10.10;48.59;100383.28;4953883;28;20043;-79
2022/01/31 06:58:14;;;;;;;43.55;18.60;;;;;;;10.01;49.18;100374.31;4959390;28;19914;-79
2022/01/31 07:00:59;;;;;;;58.22;27.08;;;;;;;10.06;50.96;100367.91;4964576;28;20043;-79
2022/01/31 07:03:43;;;;;;;71.95;28.15;;;;;;;10.10;52.24;100377.84;4949790;28;20035;-80
2022/01/31 07:06:28;;;;;;;51.03;20.98;;;;;;;9.99;50.61;100382.00;4942209;29;20051;-79
2022/01/31 07:09:13;;;;;;;64.53;30.33;;;;;;;9.83;48.90;100383.56;4945580;29;20043;-79
2022/01/31 07:12:00;;;;;;;56.30;23.98;;;;;;;9.68;48.27;100373.19;4953526;28;20042;-80
2022/01/31 07:14:45;;;;;;;64.78;27.70;;;;;;;9.69;49.48;100372.06;4960398;28;20046;-80
2022/01/31 07:17:30;;;;;;;49.92;24.45;;;;;;;9.76;50.81;100370.47;4962759;28;20074;-80
2022/01/31 07:20:23;;;;;;;;;;;;;;;9.87;51.99;100373.66;4961900;28;20061;-78
2022/01/31 07:23:15;;;;;;;73.20;35.55;;;;;;;9.72;48.66;100374.94;4968684;28;19914;-80
2022/01/31 07:26:00;;;;;;;59.85;26.50;;;;;;;9.66;47.61;100378.13;4959894;28;20054;-81
2022/01/31 07:28:44;;;;;;;65.85;26.92;;;;;;;9.58;47.55;100377.00;4948663;28;20058;-81
2022/01/31 07:31:30;;;;;;;57.95;26.02;;;;;;;9.51;47.15;100386.72;4970463;28;20054;-82
2022/01/31 07:34:17;;;;;;;51.50;27.83;;;;;;;9.34;46.21;100382.06;4981453;28;20045;-81
2022/01/31 07:37:02;;;;;;;61.60;31.38;;;;;;;9.21;46.84;100393.81;4960931;28;20054;-81
2022/01/31 07:39:47;;;;;;;;;;;;;;;9.00;47.46;100397.06;4967088;28;20050;-81
2022/01/31 07:42:31;;;;;;;59.33;24.83;;;;;;;8.97;46.93;100400.41;4982278;28;19914;-80
2022/01/31 07:45:18;;;;;;;79.93;38.47;;;;;;;8.88;46.89;100390.66;4979610;28;20050;-80
2022/01/31 07:48:04;;;;;;;56.70;24.35;;;;;;;8.86;47.64;100373.88;4963058;28;20062;-81
2022/01/31 07:50:48;;;;;;;46.97;21.95;;;;;;;8.87;47.58;100370.88;4961411;28;20054;-80
2022/01/31 07:53:32;;;;;;;65.18;29.30;;;;;;;8.97;46.23;100361.66;4962756;28;20057;-78
2022/01/31 07:56:18;;;;;;;55.50;23.10;;;;;;;9.13;45.97;100365.53;4953748;28;20058;-81
2022/01/31 07:59:03;;;;;;;64.93;27.00;;;;;;;9.17;45.65;100358.38;4963894;28;20055;-81
2022/01/31 08:01:48;;;;;;;39.65;18.13;;;;;;;9.09;46.80;100348.31;4960002;28;20042;-82
2022/01/31 08:04:33;;;;;;;34.85;17.15;;;;;;;8.76;47.15;100357.88;4972068;28;20053;-82
2022/01/31 08:07:18;;;;;;;39.58;18.58;;;;;;;8.92;46.39;100357.16;4960298;28;20051;-80
2022/01/31 08:10:04;;;;;;;;;;;;;;;8.94;46.05;100352.22;4961766;28;20070;-83
2022/01/31 08:12:49;;;;;;;59.17;24.42;;;;;;;8.95;46.00;100334.84;4958732;28;19914;-80
2022/01/31 08:15:44;;;;;;;53.10;18.90;;;;;;;8.97;46.05;100331.81;4955302;28;20069;-80
2022/01/31 08:18:30;;;;;;;64.68;26.85;;;;;;;8.99;46.11;100316.81;4949667;28;20067;-80
2022/01/31 08:21:15;;;;;;;53.17;23.90;;;;;;;8.93;45.43;100309.16;4954158;28;20074;-76
2022/01/31 08:23:59;;;;;;;49.15;20.60;;;;;;;8.19;47.77;100314.31;4956990;28;20050;-75
2022/01/31 08:26:44;;;;;;;87.97;20.05;;;;;;;7.78;49.77;100306.38;4963080;28;20054;-75
2022/01/31 08:29:32;;;;;;;60.22;24.88;;;;;;;7.53;49.88;100301.56;4966688;28;20309;-75
2022/01/31 08:32:22;;;;;;;57.38;26.83;;;;;;;7.50;50.79;100294.88;4951025;28;20536;-75
2022/01/31 08:38:11;;;;;;;52.58;26.88;;;;;;;7.60;50.40;100297.34;4947166;28;20408;-76
2022/01/31 08:40:58;;;;;;;47.92;20.40;;;;;;;7.18;50.54;100268.78;4960096;28;20042;-75
2022/01/31 08:43:44;;;;;;;51.83;25.77;;;;;;;7.15;50.88;100290.22;4954947;28;20061;-76
2022/01/31 08:46:28;;;;;;;67.70;31.05;;;;;;;6.54;53.51;100288.75;4959199;28;20066;-76
2022/01/31 08:49:15;;;;;;;54.03;24.50;;;;;;;6.78;53.15;100293.94;4960584;28;20065;-75
2022/01/31 08:51:59;;;;;;;72.78;26.05;;;;;;;7.19;53.21;100296.63;4950118;28;20078;-75
2022/01/31 08:54:44;;;;;;;;;;;;;;;7.00;54.85;100287.84;4958544;28;20046;-75
2022/01/31 08:57:29;;;;;;;82.07;29.08;;;;;;;7.21;54.19;100283.63;4976254;28;19914;-75
2022/01/31 09:00:14;;;;;;;61.85;20.80;;;;;;;7.12;54.80;100277.28;4975576;28;20407;-75
2022/01/31 09:06:10;;;;;;;73.03;28.13;;;;;;;7.52;53.70;100268.28;4933100;29;20042;-75
2022/01/31 09:08:57;;;;;;;65.65;27.23;;;;;;;7.73;53.20;100253.19;4936785;29;20511;-76
2022/01/31 09:11:42;;;;;;;65.07;27.20;;;;;;;7.81;52.84;100248.16;4934611;29;20059;-75
2022/01/31 09:14:27;;;;;;;48.92;21.52;;;;;;;7.85;52.33;100255.34;4937740;29;20046;-75
2022/01/31 09:17:12;;;;;;;54.63;21.20;;;;;;;7.68;53.21;100250.59;4936512;29;20055;-75
2022/01/31 09:19:56;;;;;;;;;;;;;;;7.63;53.88;100250.72;4934117;29;20070;-75
2022/01/31 09:22:42;;;;;;;77.32;28.55;;;;;;;7.59;54.75;100254.34;4936783;29;19914;-75
2022/01/31 09:25:28;;;;;;;65.75;27.08;;;;;;;7.74;53.79;100238.53;4954381;29;20050;-75
2022/01/31 09:28:14;;;;;;;61.05;27.25;;;;;;;8.10;53.15;100237.66;4953650;28;20058;-75
2022/01/31 09:30:59;;;;;;;69.05;28.83;;;;;;;8.27;52.48;100213.38;4957714;28;20051;-75
2022/01/31 09:33:44;;;;;;;54.10;23.67;;;;;;;8.55;51.62;100205.84;4955657;29;20050;-75
2022/01/31 09:36:29;;;;;;;62.38;26.60;;;;;;;7.93;53.37;100226.72;4953996;29;20066;-76
2022/01/31 09:39:13;;;;;;;68.03;28.83;;;;;;;7.54;54.10;100230.91;4958050;29;20050;-75
2022/01/31 09:41:58;;;;;;;56.80;23.40;;;;;;;6.95;56.33;100210.38;4956224;28;20054;-76
2022/01/31 09:50:38;;;;;;;68.32;27.88;;;;;;;8.16;53.88;100202.00;4955006;28;20055;-76
2022/01/31 09:53:22;;;;;;;68.25;29.10;;;;;;;8.72;52.01;100189.66;4953264;28;20050;-75
2022/01/31 09:56:10;;;;;;;91.13;32.03;;;;;;;9.48;51.18;100181.09;4953049;28;20047;-75
2022/01/31 09:58:55;;;;;;;80.53;31.63;;;;;;;9.37;51.58;100191.47;4955358;29;20042;-75
2022/01/31 10:01:52;;;;;;;60.05;27.85;;;;;;;9.56;48.26;100185.69;4953716;29;20417;-75
2022/01/31 10:04:43;;;;;;;68.22;29.83;;;;;;;9.36;49.76;100193.38;4953456;28;20038;-76
2022/01/31 10:07:44;;;;;;;69.50;28.15;;;;;;;8.83;50.83;100179.31;4954721;29;20061;-75
2022/01/31 10:10:30;;;;;;;83.88;29.58;;;;;;;9.28;50.49;100169.78;4956582;28;20062;-75
2022/01/31 10:16:45;;;;;;;62.58;28.20;;;;;;;9.00;50.73;100144.06;4954446;28;20411;-75
2022/01/31 10:19:38;;;;;;;59.58;28.67;;;;;;;8.67;52.34;100134.78;4947795;28;20054;-75
2022/01/31 10:22:25;;;;;;;68.07;26.85;;;;;;;9.33;50.39;100136.25;4960079;28;20051;-75
2022/01/31 10:25:14;;;;;;;56.03;27.88;;;;;;;9.91;48.86;100119.34;4959833;28;20047;-75
2022/01/31 10:27:59;;;;;;;71.32;28.50;;;;;;;10.19;47.94;100108.88;4947538;28;20066;-76
2022/01/31 10:30:46;;;;;;;52.90;21.60;;;;;;;9.64;49.35;100101.56;4945354;28;20039;-75
2022/01/31 10:33:33;;;;;;;56.80;27.30;;;;;;;9.87;48.92;100081.19;4949794;28;20054;-74
2022/01/31 10:36:21;;;;;;;63.65;26.58;;;;;;;9.82;49.41;100065.06;4949305;28;20039;-75
2022/01/31 10:43:23;;;;;;;62.88;25.42;;;;;;;9.22;51.49;100061.75;4956628;28;20050;-74
2022/01/31 10:54:41;;;;;;;58.00;26.60;;;;;;;9.10;51.50;99997.28;4962744;28;20042;-76
2022/01/31 10:57:26;;;;;;;62.25;28.02;;;;;;;9.43;49.44;99989.38;4965743;28;20055;-75
2022/01/31 11:00:11;;;;;;;59.92;27.73;;;;;;;9.81;48.36;99973.06;4963909;28;20650;-74
2022/01/31 11:02:56;;;;;;;46.22;20.02;;;;;;;9.87;48.31;99960.91;4960646;28;20109;-76
2022/01/31 11:05:40;;;;;;;42.47;19.25;;;;;;;10.54;46.29;99968.13;4955996;28;20062;-75
2022/01/31 11:08:25;;;;;;;57.22;26.63;;;;;;;11.05;45.82;99958.66;4956490;28;20119;-76
2022/01/31 11:11:10;;;;;;;46.78;21.10;;;;;;;11.51;44.38;99938.44;4952674;28;20710;-76
2022/01/31 11:13:55;;;;;;;44.05;19.95;;;;;;;12.04;43.38;99934.66;4953653;28;20050;-76
2022/01/31 11:16:42;;;;;;;;;;;;;;;11.63;43.29;99953.97;4958243;28;20049;-76
2022/01/31 11:19:33;;;;;;;50.42;23.92;;;;;;;11.65;43.58;99933.44;4962446;28;19918;-76
2022/01/31 11:22:27;;;;;;;54.85;24.92;;;;;;;10.93;45.14;99945.03;4953570;28;20432;-74
2022/01/31 11:25:15;;;;;;;64.60;25.00;;;;;;;10.59;46.24;99940.72;4944617;28;20050;-76
2022/01/31 11:28:03;;;;;;;51.00;24.50;;;;;;;10.44;46.47;99925.03;4957407;28;20047;-75
2022/01/31 11:30:48;;;;;;;55.28;24.48;;;;;;;10.80;45.50;99917.00;4954189;28;20070;-75
2022/01/31 11:33:35;;;;;;;53.92;24.02;;;;;;;11.84;44.19;99902.91;4950870;28;20527;-75
2022/01/31 11:36:20;;;;;;;54.72;24.95;;;;;;;11.43;45.48;99893.03;4953019;28;20066;-76
2022/01/31 11:39:09;;;;;;;;;;;;;;;11.97;44.02;99886.22;4951765;28;20059;-75
2022/01/31 11:42:01;;;;;;;48.05;23.42;;;;;;;12.90;41.77;99877.84;4948774;28;19914;-75
2022/01/31 11:44:57;;;;;;;53.80;23.25;;;;;;;12.31;44.29;99868.47;4955134;28;20043;-75
2022/01/31 11:47:45;;;;;;;55.20;25.20;;;;;;;11.82;44.78;99859.69;4948420;28;20511;-75
2022/01/31 11:50:42;;;;;;;54.88;25.33;;;;;;;11.48;47.06;99860.13;4950892;28;20404;-74
2022/01/31 11:53:36;;;;;;;54.67;25.05;;;;;;;10.93;48.78;99831.59;4954564;28;20054;-75
2022/01/31 11:56:22;;;;;;;50.10;25.20;;;;;;;11.05;49.29;99830.81;4944653;28;20409;-75
2022/01/31 11:59:12;;;;;;;49.65;23.77;;;;;;;11.49;49.13;99815.44;4950954;28;20046;-73
2022/01/31 12:01:58;;;;;;;49.35;25.05;;;;;;;12.08;46.64;99802.03;4952276;28;20050;-78
2022/01/31 12:04:45;;;;;;;54.85;25.02;;;;;;;12.29;46.38;99796.38;4947613;28;20416;-74
2022/01/31 12:07:41;;;;;;;47.05;23.88;;;;;;;11.90;46.85;99790.63;4948773;28;20046;-75
2022/01/31 12:10:33;;;;;;;52.58;26.85;;;;;;;11.43;48.77;99775.97;4949897;28;20511;-74
2022/01/31 12:13:36;;;;;;;52.05;26.02;;;;;;;11.33;49.10;99758.19;4946874;28;20046;-75
2022/01/31 12:16:50;;;;;;;48.92;25.20;;;;;;;12.13;47.22;99771.81;4949443;28;20054;-74
2022/01/31 12:22:47;;;;;;;57.80;24.80;;;;;;;10.57;51.21;99771.72;4951034;28;20054;-75
2022/01/31 12:25:32;;;;;;;51.58;27.33;;;;;;;9.71;52.63;99772.56;4946444;28;20101;-76
2022/01/31 12:28:39;;;;;;;43.15;20.08;;;;;;;9.75;54.11;99773.50;4953364;28;20051;-75
2022/01/31 12:31:39;;;;;;;51.50;26.20;;;;;;;9.95;53.56;99755.59;4951094;28;20058;-75
2022/01/31 12:34:24;;;;;;;52.28;25.05;;;;;;;10.22;52.59;99749.56;4949424;28;20050;-76
2022/01/31 12:37:08;;;;;;;42.22;21.50;;;;;;;10.39;52.40;99743.16;4953018;28;20093;-75
2022/01/31 12:40:16;;;;;;;55.03;28.08;;;;;;;9.53;54.71;99739.34;4946568;28;20475;-75
2022/01/31 12:45:54;;;;;;;57.95;28.08;;;;;;;9.55;54.75;99741.75;4943627;28;20047;-76
2022/01/31 12:48:38;;;;;;;58.28;29.45;;;;;;;8.98;56.63;99729.53;4944005;28;20058;-76
2022/01/31 12:51:23;;;;;;;47.60;21.90;;;;;;;9.64;54.92;99728.88;4942316;28;20051;-75
2022/01/31 12:54:08;;;;;;;60.65;27.38;;;;;;;9.17;56.17;99729.09;4945336;28;20203;-76
2022/01/31 12:56:53;;;;;;;43.33;22.90;;;;;;;8.58;58.52;99723.66;4949478;28;20046;-76
2022/01/31 12:59:49;;;;;;;55.65;29.83;;;;;;;9.11;57.08;99721.47;4956378;28;20419;-76
2022/01/31 13:02:47;;;;;;;41.90;21.83;;;;;;;9.08;57.03;99720.22;4955380;28;20054;-76
2022/01/31 13:05:33;;;;;;;64.13;28.67;;;;;;;9.35;55.97;99722.41;4952355;28;20529;-75
2022/01/31 13:08:19;;;;;;;60.50;29.73;;;;;;;9.40;55.77;99715.97;4957224;28;20059;-76
2022/01/31 13:11:14;;;;;;;58.55;28.02;;;;;;;9.41;55.67;99712.94;4955704;28;20550;-76
2022/01/31 13:14:14;;;;;;;65.70;28.30;;;;;;;9.24;57.48;99704.97;4958450;28;20742;-75
2022/01/31 13:19:55;;;;;;;55.65;28.15;;;;;;;8.64;60.16;99685.56;4954462;28;20058;-75
2022/01/31 13:22:41;;;;;;;58.25;30.10;;;;;;;8.68;60.07;99678.38;4957834;28;20054;-77
2022/01/31 13:25:27;;;;;;;64.80;31.63;;;;;;;8.65;60.70;99673.59;4953380;28;20065;-77
2022/01/31 13:28:12;;;;;;;63.45;29.23;;;;;;;8.48;61.29;99660.97;4954250;28;20415;-77
2022/01/31 13:31:11;;;;;;;51.13;24.20;;;;;;;8.82;60.71;99654.53;4957922;28;20531;-76
2022/01/31 13:34:00;;;;;;;59.72;28.05;;;;;;;9.12;59.94;99647.91;4954830;29;20054;-76